sensor_id;sensor_type;location;lat;lon;timestamp;pressure;altitude;pressure_sealevel;temperature;humidity
65394;BME280;52002;49.760;6.512;2023-12-14T00:01:52;99027.71;;;8.17;88.05
65394;BME280;52002;49.760;6.512;2023-12-14T00:04:17;99031.66;;;8.19;88.24
65394;BME280;52002;49.760;6.512;2023-12-14T00:06:42;99039.44;;;8.19;88.11
65394;BME280;52002;49.760;6.512;2023-12-14T00:09:07;99044.73;;;8.17;88.13
65394;BME280;52002;49.760;6.512;2023-12-14T00:11:39;99043.31;;;8.18;88.20
65394;BME280;52002;49.760;6.512;2023-12-14T00:14:05;99047.86;;;8.18;88.39
65394;BME280;52002;49.760;6.512;2023-12-14T00:16:30;99052.98;;;8.18;88.32
65394;BME280;52002;49.760;6.512;2023-12-14T00:18:56;99059.45;;;8.17;88.10
65394;BME280;52002;49.760;6.512;2023-12-14T00:21:21;99063.85;;;8.16;88.20
65394;BME280;52002;49.760;6.512;2023-12-14T00:23:46;99061.64;;;8.17;88.49
65394;BME280;52002;49.760;6.512;2023-12-14T00:26:12;99065.92;;;8.18;88.63
65394;BME280;52002;49.760;6.512;2023-12-14T00:28:38;99069.54;;;8.19;88.49
65394;BME280;52002;49.760;6.512;2023-12-14T00:31:03;99069.35;;;8.19;88.49
65394;BME280;52002;49.760;6.512;2023-12-14T00:33:29;99078.29;;;8.19;88.27
65394;BME280;52002;49.760;6.512;2023-12-14T00:35:54;99079.46;;;8.17;88.30
65394;BME280;52002;49.760;6.512;2023-12-14T00:38:19;99081.55;;;8.18;88.22
65394;BME280;52002;49.760;6.512;2023-12-14T00:40:45;99084.14;;;8.17;88.36
65394;BME280;52002;49.760;6.512;2023-12-14T00:43:10;99087.97;;;8.17;88.54
65394;BME280;52002;49.760;6.512;2023-12-14T00:45:35;99089.63;;;8.19;88.49
65394;BME280;52002;49.760;6.512;2023-12-14T00:48:01;99092.95;;;8.19;88.42
65394;BME280;52002;49.760;6.512;2023-12-14T00:50:26;99097.84;;;8.20;88.61
65394;BME280;52002;49.760;6.512;2023-12-14T00:52:51;99107.58;;;8.20;88.43
65394;BME280;52002;49.760;6.512;2023-12-14T00:55:17;99110.38;;;8.20;88.36
65394;BME280;52002;49.760;6.512;2023-12-14T00:57:42;99113.45;;;8.20;88.42
65394;BME280;52002;49.760;6.512;2023-12-14T01:00:08;99115.91;;;8.16;88.08
65394;BME280;52002;49.760;6.512;2023-12-14T01:02:35;99114.27;;;8.11;87.85
65394;BME280;52002;49.760;6.512;2023-12-14T01:05:01;99119.66;;;8.06;87.99
65394;BME280;52002;49.760;6.512;2023-12-14T01:07:26;99123.95;;;8.04;88.24
65394;BME280;52002;49.760;6.512;2023-12-14T01:09:52;99129.51;;;8.01;88.37
65394;BME280;52002;49.760;6.512;2023-12-14T01:12:17;99135.89;;;7.99;88.46
65394;BME280;52002;49.760;6.512;2023-12-14T01:14:42;99140.73;;;7.99;88.58
65394;BME280;52002;49.760;6.512;2023-12-14T01:17:08;99147.24;;;7.97;88.43
65394;BME280;52002;49.760;6.512;2023-12-14T01:19:33;99151.52;;;7.95;88.62
65394;BME280;52002;49.760;6.512;2023-12-14T01:21:59;99158.18;;;7.94;88.80
65394;BME280;52002;49.760;6.512;2023-12-14T01:24:24;99167.84;;;7.93;88.73
65394;BME280;52002;49.760;6.512;2023-12-14T01:26:49;99169.44;;;7.93;88.53
65394;BME280;52002;49.760;6.512;2023-12-14T01:29:15;99174.42;;;7.91;88.45
65394;BME280;52002;49.760;6.512;2023-12-14T01:31:40;99179.21;;;7.89;88.39
65394;BME280;52002;49.760;6.512;2023-12-14T01:34:05;99189.41;;;7.86;88.53
65394;BME280;52002;49.760;6.512;2023-12-14T01:36:31;99198.42;;;7.84;88.81
65394;BME280;52002;49.760;6.512;2023-12-14T01:38:56;99202.30;;;7.82;88.74
65394;BME280;52002;49.760;6.512;2023-12-14T01:41:21;99207.02;;;7.81;88.78
65394;BME280;52002;49.760;6.512;2023-12-14T01:43:47;99208.53;;;7.80;88.73
65394;BME280;52002;49.760;6.512;2023-12-14T01:46:12;99211.47;;;7.77;88.59
65394;BME280;52002;49.760;6.512;2023-12-14T01:48:40;99217.12;;;7.75;88.73
65394;BME280;52002;49.760;6.512;2023-12-14T01:51:05;99220.58;;;7.75;88.75
65394;BME280;52002;49.760;6.512;2023-12-14T01:53:30;99228.75;;;7.75;88.95
65394;BME280;52002;49.760;6.512;2023-12-14T01:55:56;99238.48;;;7.76;88.74
65394;BME280;52002;49.760;6.512;2023-12-14T01:58:21;99243.23;;;7.72;88.29
65394;BME280;52002;49.760;6.512;2023-12-14T02:01:26;99250.63;;;7.70;88.31
65394;BME280;52002;49.760;6.512;2023-12-14T02:03:50;99258.16;;;7.71;88.58
65394;BME280;52002;49.760;6.512;2023-12-14T02:06:17;99258.39;;;7.72;88.53
65394;BME280;52002;49.760;6.512;2023-12-14T02:08:43;99260.98;;;7.73;88.88
65394;BME280;52002;49.760;6.512;2023-12-14T02:11:08;99260.45;;;7.76;88.77
65394;BME280;52002;49.760;6.512;2023-12-14T02:13:33;99266.77;;;7.76;88.69
65394;BME280;52002;49.760;6.512;2023-12-14T02:15:59;99275.19;;;7.75;88.78
65394;BME280;52002;49.760;6.512;2023-12-14T02:18:25;99281.73;;;7.75;88.90
65394;BME280;52002;49.760;6.512;2023-12-14T02:20:50;99287.16;;;7.76;88.96
65394;BME280;52002;49.760;6.512;2023-12-14T02:23:16;99286.40;;;7.74;88.75
65394;BME280;52002;49.760;6.512;2023-12-14T02:25:41;99286.04;;;7.74;88.85
65394;BME280;52002;49.760;6.512;2023-12-14T02:28:06;99288.24;;;7.74;88.79
65394;BME280;52002;49.760;6.512;2023-12-14T02:30:32;99297.64;;;7.72;88.85
65394;BME280;52002;49.760;6.512;2023-12-14T02:32:57;99306.82;;;7.70;88.71
65394;BME280;52002;49.760;6.512;2023-12-14T02:35:23;99307.28;;;7.67;88.71
65394;BME280;52002;49.760;6.512;2023-12-14T02:37:48;99308.96;;;7.68;88.95
65394;BME280;52002;49.760;6.512;2023-12-14T02:40:14;99314.52;;;7.69;89.03
65394;BME280;52002;49.760;6.512;2023-12-14T02:42:39;99315.36;;;7.69;89.16
65394;BME280;52002;49.760;6.512;2023-12-14T02:45:05;99310.52;;;7.70;88.87
65394;BME280;52002;49.760;6.512;2023-12-14T02:47:31;99313.70;;;7.70;88.84
65394;BME280;52002;49.760;6.512;2023-12-14T02:49:56;99315.40;;;7.71;88.89
65394;BME280;52002;49.760;6.512;2023-12-14T02:52:22;99316.98;;;7.71;88.95
65394;BME280;52002;49.760;6.512;2023-12-14T02:54:47;99319.29;;;7.73;89.05
65394;BME280;52002;49.760;6.512;2023-12-14T02:57:13;99321.09;;;7.75;89.00
65394;BME280;52002;49.760;6.512;2023-12-14T02:59:39;99323.27;;;7.76;89.02
65394;BME280;52002;49.760;6.512;2023-12-14T03:02:04;99331.08;;;7.77;89.05
65394;BME280;52002;49.760;6.512;2023-12-14T03:04:29;99335.80;;;7.75;88.68
65394;BME280;52002;49.760;6.512;2023-12-14T03:06:55;99338.01;;;7.76;88.83
65394;BME280;52002;49.760;6.512;2023-12-14T03:09:21;99339.38;;;7.77;88.91
65394;BME280;52002;49.760;6.512;2023-12-14T03:11:48;99347.73;;;7.79;88.89
65394;BME280;52002;49.760;6.512;2023-12-14T03:14:13;99358.23;;;7.78;88.87
65394;BME280;52002;49.760;6.512;2023-12-14T03:16:39;99360.02;;;7.75;88.39
65394;BME280;52002;49.760;6.512;2023-12-14T03:19:04;99359.00;;;7.71;88.23
65394;BME280;52002;49.760;6.512;2023-12-14T03:21:30;99361.48;;;7.67;88.48
65394;BME280;52002;49.760;6.512;2023-12-14T03:23:56;99364.79;;;7.63;88.46
65394;BME280;52002;49.760;6.512;2023-12-14T03:26:21;99371.52;;;7.61;88.38
65394;BME280;52002;49.760;6.512;2023-12-14T03:28:46;99371.08;;;7.58;88.40
65394;BME280;52002;49.760;6.512;2023-12-14T03:31:12;99371.10;;;7.56;88.48
65394;BME280;52002;49.760;6.512;2023-12-14T03:33:39;99378.81;;;7.55;88.45
65394;BME280;52002;49.760;6.512;2023-12-14T03:36:05;99381.56;;;7.52;88.20
65394;BME280;52002;49.760;6.512;2023-12-14T03:38:31;99386.34;;;7.50;88.62
65394;BME280;52002;49.760;6.512;2023-12-14T03:40:57;99386.88;;;7.50;88.81
65394;BME280;52002;49.760;6.512;2023-12-14T03:43:22;99391.83;;;7.50;88.68
65394;BME280;52002;49.760;6.512;2023-12-14T03:45:48;99394.69;;;7.50;88.69
65394;BME280;52002;49.760;6.512;2023-12-14T03:48:14;99400.95;;;7.49;88.50
65394;BME280;52002;49.760;6.512;2023-12-14T03:50:39;99406.13;;;7.48;88.79
65394;BME280;52002;49.760;6.512;2023-12-14T03:53:04;99403.22;;;7.47;88.91
65394;BME280;52002;49.760;6.512;2023-12-14T03:55:30;99410.54;;;7.47;88.86
65394;BME280;52002;49.760;6.512;2023-12-14T03:57:55;99419.76;;;7.46;89.00
65394;BME280;52002;49.760;6.512;2023-12-14T04:00:20;99427.74;;;7.43;88.87
65394;BME280;52002;49.760;6.512;2023-12-14T04:02:46;99427.80;;;7.41;88.94
65394;BME280;52002;49.760;6.512;2023-12-14T04:05:11;99434.16;;;7.39;89.01
65394;BME280;52002;49.760;6.512;2023-12-14T04:07:37;99436.45;;;7.37;88.96
65394;BME280;52002;49.760;6.512;2023-12-14T04:10:07;99442.80;;;7.35;89.13
65394;BME280;52002;49.760;6.512;2023-12-14T04:12:33;99449.11;;;7.32;88.78
65394;BME280;52002;49.760;6.512;2023-12-14T04:14:58;99450.98;;;7.26;88.78
65394;BME280;52002;49.760;6.512;2023-12-14T04:17:24;99457.80;;;7.21;88.78
65394;BME280;52002;49.760;6.512;2023-12-14T04:19:50;99459.05;;;7.14;88.34
65394;BME280;52002;49.760;6.512;2023-12-14T04:22:15;99460.36;;;7.11;88.68
65394;BME280;52002;49.760;6.512;2023-12-14T04:24:40;99462.02;;;7.08;88.54
65394;BME280;52002;49.760;6.512;2023-12-14T04:27:06;99466.55;;;7.04;88.46
65394;BME280;52002;49.760;6.512;2023-12-14T04:29:31;99473.89;;;7.03;88.77
65394;BME280;52002;49.760;6.512;2023-12-14T04:31:57;99478.77;;;7.02;88.74
65394;BME280;52002;49.760;6.512;2023-12-14T04:34:22;99480.27;;;7.03;89.13
65394;BME280;52002;49.760;6.512;2023-12-14T04:36:47;99490.48;;;7.04;89.00
65394;BME280;52002;49.760;6.512;2023-12-14T04:39:13;99495.45;;;7.06;89.10
65394;BME280;52002;49.760;6.512;2023-12-14T04:41:39;99491.42;;;7.06;88.88
65394;BME280;52002;49.760;6.512;2023-12-14T04:44:04;99498.65;;;7.06;88.78
65394;BME280;52002;49.760;6.512;2023-12-14T04:46:30;99499.09;;;7.07;89.19
65394;BME280;52002;49.760;6.512;2023-12-14T04:48:55;99505.69;;;7.09;89.38
65394;BME280;52002;49.760;6.512;2023-12-14T04:51:21;99510.67;;;7.10;89.58
65394;BME280;52002;49.760;6.512;2023-12-14T04:53:46;99510.75;;;7.12;89.50
65394;BME280;52002;49.760;6.512;2023-12-14T04:56:12;99519.27;;;7.11;88.96
65394;BME280;52002;49.760;6.512;2023-12-14T04:58:41;99520.45;;;7.12;89.28
65394;BME280;52002;49.760;6.512;2023-12-14T05:01:07;99524.14;;;7.12;89.22
65394;BME280;52002;49.760;6.512;2023-12-14T05:03:34;99527.49;;;7.12;89.08
65394;BME280;52002;49.760;6.512;2023-12-14T05:06:00;99530.39;;;7.11;89.00
65394;BME280;52002;49.760;6.512;2023-12-14T05:08:25;99535.61;;;7.11;89.07
65394;BME280;52002;49.760;6.512;2023-12-14T05:10:50;99540.58;;;7.10;89.09
65394;BME280;52002;49.760;6.512;2023-12-14T05:13:16;99546.04;;;7.11;89.15
65394;BME280;52002;49.760;6.512;2023-12-14T05:15:41;99552.27;;;7.12;89.18
65394;BME280;52002;49.760;6.512;2023-12-14T05:18:06;99554.10;;;7.10;89.06
65394;BME280;52002;49.760;6.512;2023-12-14T05:20:32;99559.70;;;7.08;89.12
65394;BME280;52002;49.760;6.512;2023-12-14T05:22:57;99569.79;;;7.08;89.25
65394;BME280;52002;49.760;6.512;2023-12-14T05:25:23;99575.02;;;7.05;88.92
65394;BME280;52002;49.760;6.512;2023-12-14T05:27:48;99575.16;;;7.03;89.04
65394;BME280;52002;49.760;6.512;2023-12-14T05:30:13;99578.85;;;7.01;89.26
65394;BME280;52002;49.760;6.512;2023-12-14T05:32:39;99577.92;;;7.02;89.12
65394;BME280;52002;49.760;6.512;2023-12-14T05:35:05;99583.07;;;7.02;88.99
65394;BME280;52002;49.760;6.512;2023-12-14T05:37:31;99583.69;;;7.01;89.01
65394;BME280;52002;49.760;6.512;2023-12-14T05:39:56;99585.33;;;7.00;89.11
65394;BME280;52002;49.760;6.512;2023-12-14T05:42:21;99593.88;;;6.99;89.19
65394;BME280;52002;49.760;6.512;2023-12-14T05:44:47;99597.34;;;6.98;88.74
65394;BME280;52002;49.760;6.512;2023-12-14T05:47:12;99601.60;;;6.96;88.84
65394;BME280;52002;49.760;6.512;2023-12-14T05:49:41;99605.90;;;6.95;88.91
65394;BME280;52002;49.760;6.512;2023-12-14T05:52:07;99605.70;;;6.95;88.84
65394;BME280;52002;49.760;6.512;2023-12-14T05:54:33;99610.11;;;6.95;89.16
65394;BME280;52002;49.760;6.512;2023-12-14T05:56:58;99615.98;;;6.95;89.27
65394;BME280;52002;49.760;6.512;2023-12-14T05:59:23;99623.02;;;6.91;89.22
65394;BME280;52002;49.760;6.512;2023-12-14T06:01:49;99632.45;;;6.90;89.38
65394;BME280;52002;49.760;6.512;2023-12-14T06:04:14;99636.09;;;6.89;89.46
65394;BME280;52002;49.760;6.512;2023-12-14T06:06:39;99638.61;;;6.86;89.41
65394;BME280;52002;49.760;6.512;2023-12-14T06:09:05;99640.29;;;6.81;89.00
65394;BME280;52002;49.760;6.512;2023-12-14T06:11:33;99640.94;;;6.77;89.24
65394;BME280;52002;49.760;6.512;2023-12-14T06:13:58;99644.01;;;6.74;89.09
65394;BME280;52002;49.760;6.512;2023-12-14T06:16:25;99654.71;;;6.70;88.99
65394;BME280;52002;49.760;6.512;2023-12-14T06:18:50;99670.60;;;6.66;89.03
65394;BME280;52002;49.760;6.512;2023-12-14T06:21:15;99683.27;;;6.63;88.74
65394;BME280;52002;49.760;6.512;2023-12-14T06:23:41;99688.16;;;6.61;88.92
65394;BME280;52002;49.760;6.512;2023-12-14T06:26:07;99690.68;;;6.60;89.16
65394;BME280;52002;49.760;6.512;2023-12-14T06:28:32;99694.82;;;6.62;89.36
65394;BME280;52002;49.760;6.512;2023-12-14T06:30:57;99694.86;;;6.61;88.88
65394;BME280;52002;49.760;6.512;2023-12-14T06:33:23;99700.67;;;6.61;89.41
65394;BME280;52002;49.760;6.512;2023-12-14T06:35:48;99705.91;;;6.60;89.16
65394;BME280;52002;49.760;6.512;2023-12-14T06:38:14;99708.51;;;6.59;88.95
65394;BME280;52002;49.760;6.512;2023-12-14T06:40:39;99713.73;;;6.55;89.02
65394;BME280;52002;49.760;6.512;2023-12-14T06:43:05;99715.17;;;6.52;89.28
65394;BME280;52002;49.760;6.512;2023-12-14T06:45:30;99718.28;;;6.48;89.33
65394;BME280;52002;49.760;6.512;2023-12-14T06:47:56;99723.95;;;6.46;89.29
65394;BME280;52002;49.760;6.512;2023-12-14T06:50:21;99727.92;;;6.45;89.57
65394;BME280;52002;49.760;6.512;2023-12-14T06:52:46;99739.42;;;6.45;89.71
65394;BME280;52002;49.760;6.512;2023-12-14T06:55:12;99747.23;;;6.44;89.85
65394;BME280;52002;49.760;6.512;2023-12-14T06:57:43;99755.38;;;6.44;89.79
65394;BME280;52002;49.760;6.512;2023-12-14T07:00:09;99761.60;;;6.44;89.41
65394;BME280;52002;49.760;6.512;2023-12-14T07:02:35;99765.29;;;6.46;89.71
65394;BME280;52002;49.760;6.512;2023-12-14T07:05:00;99773.09;;;6.51;89.88
65394;BME280;52002;49.760;6.512;2023-12-14T07:07:26;99781.25;;;6.55;89.87
65394;BME280;52002;49.760;6.512;2023-12-14T07:09:51;99786.77;;;6.59;90.30
65394;BME280;52002;49.760;6.512;2023-12-14T07:12:16;99791.27;;;6.63;89.74
65394;BME280;52002;49.760;6.512;2023-12-14T07:14:43;99798.36;;;6.65;89.61
65394;BME280;52002;49.760;6.512;2023-12-14T07:17:08;99807.75;;;6.67;89.64
65394;BME280;52002;49.760;6.512;2023-12-14T07:19:33;99814.23;;;6.68;89.51
65394;BME280;52002;49.760;6.512;2023-12-14T07:22:00;99816.97;;;6.72;89.92
65394;BME280;52002;49.760;6.512;2023-12-14T07:24:26;99820.83;;;6.74;89.25
65394;BME280;52002;49.760;6.512;2023-12-14T07:26:51;99822.48;;;6.76;89.31
65394;BME280;52002;49.760;6.512;2023-12-14T07:29:17;99828.36;;;6.78;89.54
65394;BME280;52002;49.760;6.512;2023-12-14T07:31:42;99830.41;;;6.81;89.76
65394;BME280;52002;49.760;6.512;2023-12-14T07:34:07;99835.59;;;6.85;89.61
65394;BME280;52002;49.760;6.512;2023-12-14T07:36:32;99845.26;;;6.89;89.48
65394;BME280;52002;49.760;6.512;2023-12-14T07:38:58;99850.85;;;6.89;89.03
65394;BME280;52002;49.760;6.512;2023-12-14T07:41:25;99857.95;;;6.84;88.21
65394;BME280;52002;49.760;6.512;2023-12-14T07:43:57;99860.77;;;6.79;88.53
65394;BME280;52002;49.760;6.512;2023-12-14T07:46:23;99864.73;;;6.79;88.69
65394;BME280;52002;49.760;6.512;2023-12-14T07:48:49;99868.41;;;6.77;88.77
65394;BME280;52002;49.760;6.512;2023-12-14T07:51:14;99874.29;;;6.76;88.57
65394;BME280;52002;49.760;6.512;2023-12-14T07:53:40;99880.91;;;6.78;89.05
65394;BME280;52002;49.760;6.512;2023-12-14T07:56:06;99881.23;;;6.78;89.04
65394;BME280;52002;49.760;6.512;2023-12-14T07:58:32;99890.13;;;6.80;88.83
65394;BME280;52002;49.760;6.512;2023-12-14T08:00:57;99894.05;;;6.82;89.18
65394;BME280;52002;49.760;6.512;2023-12-14T08:03:23;99898.27;;;6.85;89.37
65394;BME280;52002;49.760;6.512;2023-12-14T08:05:48;99903.63;;;6.86;89.08
65394;BME280;52002;49.760;6.512;2023-12-14T08:08:14;99904.64;;;6.89;89.23
65394;BME280;52002;49.760;6.512;2023-12-14T08:10:39;99909.45;;;6.94;89.52
65394;BME280;52002;49.760;6.512;2023-12-14T08:13:05;99909.45;;;6.98;89.67
65394;BME280;52002;49.760;6.512;2023-12-14T08:15:30;99915.48;;;7.03;89.71
65394;BME280;52002;49.760;6.512;2023-12-14T08:17:56;99916.89;;;7.05;89.53
65394;BME280;52002;49.760;6.512;2023-12-14T08:20:21;99921.79;;;7.06;89.06
65394;BME280;52002;49.760;6.512;2023-12-14T08:22:47;99927.64;;;7.08;89.07
65394;BME280;52002;49.760;6.512;2023-12-14T08:25:13;99928.64;;;7.11;89.08
65394;BME280;52002;49.760;6.512;2023-12-14T08:27:43;99935.40;;;7.16;89.07
65394;BME280;52002;49.760;6.512;2023-12-14T08:30:13;99941.18;;;7.19;89.07
65394;BME280;52002;49.760;6.512;2023-12-14T08:32:38;99941.61;;;7.20;88.79
65394;BME280;52002;49.760;6.512;2023-12-14T08:35:04;99944.25;;;7.21;88.64
65394;BME280;52002;49.760;6.512;2023-12-14T08:37:30;99946.88;;;7.19;88.48
65394;BME280;52002;49.760;6.512;2023-12-14T08:39:55;99952.38;;;7.18;88.36
65394;BME280;52002;49.760;6.512;2023-12-14T08:42:21;99956.67;;;7.15;88.05
65394;BME280;52002;49.760;6.512;2023-12-14T08:44:46;99968.85;;;7.13;88.15
65394;BME280;52002;49.760;6.512;2023-12-14T08:47:12;99976.94;;;7.14;88.44
65394;BME280;52002;49.760;6.512;2023-12-14T08:49:37;99986.15;;;7.16;88.61
65394;BME280;52002;49.760;6.512;2023-12-14T08:52:03;99987.59;;;7.21;88.59
65394;BME280;52002;49.760;6.512;2023-12-14T08:54:29;99986.50;;;7.26;88.68
65394;BME280;52002;49.760;6.512;2023-12-14T08:56:55;100001.38;;;7.33;88.54
65394;BME280;52002;49.760;6.512;2023-12-14T08:59:20;100002.58;;;7.40;88.93
65394;BME280;52002;49.760;6.512;2023-12-14T09:01:46;100007.53;;;7.48;88.53
65394;BME280;52002;49.760;6.512;2023-12-14T09:04:11;100007.08;;;7.54;88.50
65394;BME280;52002;49.760;6.512;2023-12-14T09:06:37;100010.60;;;7.61;88.39
65394;BME280;52002;49.760;6.512;2023-12-14T09:09:02;100019.73;;;7.69;88.34
65394;BME280;52002;49.760;6.512;2023-12-14T09:11:28;100025.45;;;7.78;88.09
65394;BME280;52002;49.760;6.512;2023-12-14T09:13:54;100027.05;;;7.85;87.91
65394;BME280;52002;49.760;6.512;2023-12-14T09:16:20;100036.63;;;7.94;87.64
65394;BME280;52002;49.760;6.512;2023-12-14T09:18:45;100042.23;;;8.02;87.73
65394;BME280;52002;49.760;6.512;2023-12-14T09:21:10;100048.91;;;8.07;87.60
65394;BME280;52002;49.760;6.512;2023-12-14T09:23:36;100052.87;;;8.14;87.74
65394;BME280;52002;49.760;6.512;2023-12-14T09:26:01;100053.65;;;8.17;87.53
65394;BME280;52002;49.760;6.512;2023-12-14T09:28:26;100059.01;;;8.21;87.28
65394;BME280;52002;49.760;6.512;2023-12-14T09:30:52;100065.63;;;8.22;86.97
65394;BME280;52002;49.760;6.512;2023-12-14T09:33:17;100071.55;;;8.24;86.80
65394;BME280;52002;49.760;6.512;2023-12-14T09:35:43;100078.73;;;8.27;86.80
65394;BME280;52002;49.760;6.512;2023-12-14T09:38:09;100083.66;;;8.32;86.87
65394;BME280;52002;49.760;6.512;2023-12-14T09:40:34;100091.17;;;8.39;86.85
65394;BME280;52002;49.760;6.512;2023-12-14T09:43:00;100097.59;;;8.45;86.92
65394;BME280;52002;49.760;6.512;2023-12-14T09:45:29;100098.85;;;8.47;86.64
65394;BME280;52002;49.760;6.512;2023-12-14T09:47:59;100103.95;;;8.50;86.66
65394;BME280;52002;49.760;6.512;2023-12-14T09:50:26;100106.27;;;8.50;86.44
65394;BME280;52002;49.760;6.512;2023-12-14T09:52:51;100108.28;;;8.52;86.57
65394;BME280;52002;49.760;6.512;2023-12-14T09:55:17;100113.39;;;8.54;86.51
65394;BME280;52002;49.760;6.512;2023-12-14T09:57:42;100115.98;;;8.53;86.09
65394;BME280;52002;49.760;6.512;2023-12-14T10:00:08;100122.34;;;8.54;86.01
65394;BME280;52002;49.760;6.512;2023-12-14T10:02:39;100119.46;;;8.56;86.10
65394;BME280;52002;49.760;6.512;2023-12-14T10:05:09;100121.02;;;8.61;86.19
65394;BME280;52002;49.760;6.512;2023-12-14T10:07:41;100126.02;;;8.68;86.00
65394;BME280;52002;49.760;6.512;2023-12-14T10:10:11;100128.36;;;8.70;86.07
65394;BME280;52002;49.760;6.512;2023-12-14T10:12:52;100128.15;;;8.74;85.88
65394;BME280;52002;49.760;6.512;2023-12-14T10:15:20;100135.08;;;8.79;86.07
65394;BME280;52002;49.760;6.512;2023-12-14T10:17:51;100135.12;;;8.80;85.86
65394;BME280;52002;49.760;6.512;2023-12-14T10:20:20;100134.05;;;8.85;85.75
65394;BME280;52002;49.760;6.512;2023-12-14T10:22:48;100138.28;;;8.90;85.45
65394;BME280;52002;49.760;6.512;2023-12-14T10:25:14;100144.67;;;8.99;85.50
65394;BME280;52002;49.760;6.512;2023-12-14T10:27:39;100147.88;;;9.19;85.64
65394;BME280;52002;49.760;6.512;2023-12-14T10:30:06;100146.11;;;9.47;85.62
65394;BME280;52002;49.760;6.512;2023-12-14T10:32:33;100144.02;;;9.62;84.86
65394;BME280;52002;49.760;6.512;2023-12-14T10:34:59;100139.46;;;9.70;84.65
65394;BME280;52002;49.760;6.512;2023-12-14T10:37:25;100140.73;;;9.78;84.53
65394;BME280;52002;49.760;6.512;2023-12-14T10:39:51;100139.02;;;9.80;83.88
65394;BME280;52002;49.760;6.512;2023-12-14T10:42:20;100137.79;;;9.79;83.60
65394;BME280;52002;49.760;6.512;2023-12-14T10:44:49;100143.29;;;9.82;83.42
65394;BME280;52002;49.760;6.512;2023-12-14T10:47:18;100149.52;;;9.82;83.50
65394;BME280;52002;49.760;6.512;2023-12-14T10:49:46;100154.91;;;9.79;83.38
65394;BME280;52002;49.760;6.512;2023-12-14T10:52:14;100163.14;;;9.70;83.00
65394;BME280;52002;49.760;6.512;2023-12-14T10:54:40;100174.04;;;9.56;82.86
65394;BME280;52002;49.760;6.512;2023-12-14T10:57:07;100176.36;;;9.43;82.54
65394;BME280;52002;49.760;6.512;2023-12-14T10:59:34;100180.96;;;9.29;82.23
65394;BME280;52002;49.760;6.512;2023-12-14T11:02:07;100194.01;;;9.17;81.81
65394;BME280;52002;49.760;6.512;2023-12-14T11:04:54;100198.62;;;9.10;81.91
65394;BME280;52002;49.760;6.512;2023-12-14T11:10:23;100207.27;;;9.06;81.69
65394;BME280;52002;49.760;6.512;2023-12-14T11:15:21;100212.91;;;8.93;81.28
65394;BME280;52002;49.760;6.512;2023-12-14T11:23:10;100226.01;;;8.80;81.48
65394;BME280;52002;49.760;6.512;2023-12-14T11:25:37;100226.92;;;8.78;81.29
65394;BME280;52002;49.760;6.512;2023-12-14T11:28:04;100227.89;;;8.74;80.91
65394;BME280;52002;49.760;6.512;2023-12-14T11:30:30;100229.38;;;8.71;80.80
65394;BME280;52002;49.760;6.512;2023-12-14T11:32:55;100233.09;;;8.69;80.49
65394;BME280;52002;49.760;6.512;2023-12-14T11:35:21;100235.33;;;8.68;80.25
65394;BME280;52002;49.760;6.512;2023-12-14T11:37:46;100236.86;;;8.69;80.58
65394;BME280;52002;49.760;6.512;2023-12-14T11:40:11;100242.73;;;8.73;81.08
65394;BME280;52002;49.760;6.512;2023-12-14T11:42:38;100251.04;;;8.76;81.21
65394;BME280;52002;49.760;6.512;2023-12-14T11:45:04;100255.04;;;8.77;81.43
65394;BME280;52002;49.760;6.512;2023-12-14T11:47:29;100257.48;;;8.77;81.14
65394;BME280;52002;49.760;6.512;2023-12-14T11:49:55;100263.59;;;8.74;80.66
65394;BME280;52002;49.760;6.512;2023-12-14T11:52:21;100261.46;;;8.72;80.61
65394;BME280;52002;49.760;6.512;2023-12-14T11:54:47;100261.96;;;8.70;80.68
65394;BME280;52002;49.760;6.512;2023-12-14T11:57:12;100266.91;;;8.72;80.76
65394;BME280;52002;49.760;6.512;2023-12-14T11:59:37;100267.96;;;8.72;80.55
65394;BME280;52002;49.760;6.512;2023-12-14T12:02:03;100271.11;;;8.69;80.37
65394;BME280;52002;49.760;6.512;2023-12-14T12:04:29;100274.30;;;8.64;80.32
65394;BME280;52002;49.760;6.512;2023-12-14T12:07:03;100281.13;;;8.58;80.61
65394;BME280;52002;49.760;6.512;2023-12-14T12:09:37;100280.49;;;8.57;80.63
65394;BME280;52002;49.760;6.512;2023-12-14T12:12:07;100276.53;;;8.55;80.50
65394;BME280;52002;49.760;6.512;2023-12-14T12:14:32;100276.73;;;8.57;80.89
65394;BME280;52002;49.760;6.512;2023-12-14T12:16:58;100277.86;;;8.56;80.88
65394;BME280;52002;49.760;6.512;2023-12-14T12:19:23;100278.10;;;8.58;81.20
65394;BME280;52002;49.760;6.512;2023-12-14T12:21:48;100276.51;;;8.63;81.39
65394;BME280;52002;49.760;6.512;2023-12-14T12:24:14;100281.02;;;8.76;81.48
65394;BME280;52002;49.760;6.512;2023-12-14T12:26:39;100281.39;;;8.94;81.25
65394;BME280;52002;49.760;6.512;2023-12-14T12:29:04;100281.61;;;9.17;81.22
65394;BME280;52002;49.760;6.512;2023-12-14T12:31:31;100285.30;;;9.35;80.49
65394;BME280;52002;49.760;6.512;2023-12-14T12:33:57;100294.08;;;9.46;78.77
65394;BME280;52002;49.760;6.512;2023-12-14T12:36:22;100296.73;;;9.41;77.83
65394;BME280;52002;49.760;6.512;2023-12-14T12:38:47;100304.77;;;9.34;77.04
65394;BME280;52002;49.760;6.512;2023-12-14T12:41:13;100300.54;;;9.15;76.40
65394;BME280;52002;49.760;6.512;2023-12-14T12:43:38;100300.48;;;8.98;76.46
65394;BME280;52002;49.760;6.512;2023-12-14T12:46:04;100302.10;;;8.81;76.20
65394;BME280;52002;49.760;6.512;2023-12-14T12:48:29;100303.47;;;8.65;76.21
65394;BME280;52002;49.760;6.512;2023-12-14T12:50:55;100308.13;;;8.53;76.76
65394;BME280;52002;49.760;6.512;2023-12-14T12:53:20;100308.36;;;8.42;76.93
65394;BME280;52002;49.760;6.512;2023-12-14T12:55:45;100309.75;;;8.30;76.85
65394;BME280;52002;49.760;6.512;2023-12-14T12:58:11;100318.63;;;8.21;77.30
65394;BME280;52002;49.760;6.512;2023-12-14T13:00:36;100321.88;;;8.15;77.70
65394;BME280;52002;49.760;6.512;2023-12-14T13:03:03;100326.11;;;8.11;77.78
65394;BME280;52002;49.760;6.512;2023-12-14T13:05:28;100334.53;;;8.07;78.04
65394;BME280;52002;49.760;6.512;2023-12-14T13:07:54;100339.53;;;8.01;78.24
65394;BME280;52002;49.760;6.512;2023-12-14T13:10:19;100344.59;;;8.00;78.63
65394;BME280;52002;49.760;6.512;2023-12-14T13:12:50;100348.02;;;7.99;78.95